sensor_id;sensor_type;location;lat;lon;timestamp;P1;durP1;ratioP1;P2;durP2;ratioP2
7047;SDS011;3565;53.254;10.352;2023-09-19T00:03:53;3.77;;;2.30;;
7047;SDS011;3565;53.254;10.352;2023-09-19T00:06:23;3.77;;;2.50;;
7047;SDS011;3565;53.254;10.352;2023-09-19T00:08:52;3.10;;;2.30;;
7047;SDS011;3565;53.254;10.352;2023-09-19T00:13:58;4.37;;;2.43;;
7047;SDS011;3565;53.254;10.352;2023-09-19T00:16:28;3.07;;;2.50;;
7047;SDS011;3565;53.254;10.352;2023-09-19T00:18:58;4.27;;;2.70;;
7047;SDS011;3565;53.254;10.352;2023-09-19T00:21:29;2.80;;;2.57;;
7047;SDS011;3565;53.254;10.352;2023-09-19T00:26:37;4.87;;;3.00;;
7047;SDS011;3565;53.254;10.352;2023-09-19T00:29:06;2.80;;;2.50;;
7047;SDS011;3565;53.254;10.352;2023-09-19T00:31:39;4.20;;;2.53;;
7047;SDS011;3565;53.254;10.352;2023-09-19T00:36:51;4.47;;;2.63;;
7047;SDS011;3565;53.254;10.352;2023-09-19T00:39:20;3.30;;;2.90;;
7047;SDS011;3565;53.254;10.352;2023-09-19T00:44:28;3.70;;;2.80;;
7047;SDS011;3565;53.254;10.352;2023-09-19T00:46:56;4.33;;;3.27;;
7047;SDS011;3565;53.254;10.352;2023-09-19T00:49:26;5.60;;;3.40;;
7047;SDS011;3565;53.254;10.352;2023-09-19T00:54:34;5.97;;;3.30;;
7047;SDS011;3565;53.254;10.352;2023-09-19T00:57:04;4.10;;;3.20;;
7047;SDS011;3565;53.254;10.352;2023-09-19T00:59:34;4.00;;;3.50;;
7047;SDS011;3565;53.254;10.352;2023-09-19T01:04:40;5.03;;;3.60;;
7047;SDS011;3565;53.254;10.352;2023-09-19T01:09:48;5.07;;;3.80;;
7047;SDS011;3565;53.254;10.352;2023-09-19T01:14:57;7.20;;;4.00;;
7047;SDS011;3565;53.254;10.352;2023-09-19T01:17:38;5.23;;;4.10;;
7047;SDS011;3565;53.254;10.352;2023-09-19T01:20:21;5.97;;;4.07;;
7047;SDS011;3565;53.254;10.352;2023-09-19T01:28:52;6.37;;;4.63;;
7047;SDS011;3565;53.254;10.352;2023-09-19T01:34:02;6.73;;;4.67;;
7047;SDS011;3565;53.254;10.352;2023-09-19T01:36:32;6.43;;;4.70;;
7047;SDS011;3565;53.254;10.352;2023-09-19T01:39:05;6.67;;;4.63;;
7047;SDS011;3565;53.254;10.352;2023-09-19T01:42:03;7.67;;;5.03;;
7047;SDS011;3565;53.254;10.352;2023-09-19T01:44:48;6.43;;;5.30;;
7047;SDS011;3565;53.254;10.352;2023-09-19T01:49:50;5.20;;;4.60;;
7047;SDS011;3565;53.254;10.352;2023-09-19T01:55:02;6.27;;;4.60;;
7047;SDS011;3565;53.254;10.352;2023-09-19T01:57:35;6.67;;;4.87;;
7047;SDS011;3565;53.254;10.352;2023-09-19T02:00:08;6.70;;;5.10;;
7047;SDS011;3565;53.254;10.352;2023-09-19T02:02:43;7.77;;;5.20;;
7047;SDS011;3565;53.254;10.352;2023-09-19T02:07:52;6.43;;;5.37;;
7047;SDS011;3565;53.254;10.352;2023-09-19T02:10:22;7.73;;;4.87;;
7047;SDS011;3565;53.254;10.352;2023-09-19T02:15:28;6.90;;;5.13;;
7047;SDS011;3565;53.254;10.352;2023-09-19T02:17:59;5.77;;;5.13;;
7047;SDS011;3565;53.254;10.352;2023-09-19T02:20:29;6.47;;;5.13;;
7047;SDS011;3565;53.254;10.352;2023-09-19T02:25:36;7.53;;;4.83;;
7047;SDS011;3565;53.254;10.352;2023-09-19T02:28:06;7.83;;;4.83;;
7047;SDS011;3565;53.254;10.352;2023-09-19T02:30:35;12.20;;;5.10;;
7047;SDS011;3565;53.254;10.352;2023-09-19T02:35:42;11.00;;;4.83;;
7047;SDS011;3565;53.254;10.352;2023-09-19T02:38:11;8.67;;;5.40;;
7047;SDS011;3565;53.254;10.352;2023-09-19T02:40:42;8.60;;;4.70;;
7047;SDS011;3565;53.254;10.352;2023-09-19T02:45:49;8.20;;;4.63;;
7047;SDS011;3565;53.254;10.352;2023-09-19T02:50:57;8.80;;;4.70;;
7047;SDS011;3565;53.254;10.352;2023-09-19T02:53:27;7.67;;;4.20;;
7047;SDS011;3565;53.254;10.352;2023-09-19T02:58:35;7.67;;;4.80;;
7047;SDS011;3565;53.254;10.352;2023-09-19T03:03:47;5.83;;;4.37;;
7047;SDS011;3565;53.254;10.352;2023-09-19T03:06:17;8.33;;;4.43;;
7047;SDS011;3565;53.254;10.352;2023-09-19T03:08:46;8.23;;;4.27;;
7047;SDS011;3565;53.254;10.352;2023-09-19T03:13:55;8.80;;;4.07;;
7047;SDS011;3565;53.254;10.352;2023-09-19T03:16:25;8.67;;;3.70;;
7047;SDS011;3565;53.254;10.352;2023-09-19T03:18:55;7.53;;;3.87;;
7047;SDS011;3565;53.254;10.352;2023-09-19T03:24:02;8.80;;;3.80;;
7047;SDS011;3565;53.254;10.352;2023-09-19T03:26:34;8.60;;;3.93;;
7047;SDS011;3565;53.254;10.352;2023-09-19T03:29:05;4.97;;;3.60;;
7047;SDS011;3565;53.254;10.352;2023-09-19T03:31:44;6.40;;;3.10;;
7047;SDS011;3565;53.254;10.352;2023-09-19T03:36:50;4.73;;;2.70;;
7047;SDS011;3565;53.254;10.352;2023-09-19T03:39:20;7.03;;;2.63;;
7047;SDS011;3565;53.254;10.352;2023-09-19T03:44:26;6.37;;;2.70;;
7047;SDS011;3565;53.254;10.352;2023-09-19T03:46:55;4.47;;;2.53;;
7047;SDS011;3565;53.254;10.352;2023-09-19T03:52:02;3.20;;;2.30;;
7047;SDS011;3565;53.254;10.352;2023-09-19T03:54:32;2.77;;;2.27;;
7047;SDS011;3565;53.254;10.352;2023-09-19T03:59:39;4.93;;;2.63;;
7047;SDS011;3565;53.254;10.352;2023-09-19T04:04:46;2.30;;;2.10;;
7047;SDS011;3565;53.254;10.352;2023-09-19T04:07:15;5.17;;;2.43;;
7047;SDS011;3565;53.254;10.352;2023-09-19T04:09:53;3.83;;;2.90;;
7047;SDS011;3565;53.254;10.352;2023-09-19T04:14:59;6.80;;;2.80;;
7047;SDS011;3565;53.254;10.352;2023-09-19T04:17:30;4.37;;;2.57;;
7047;SDS011;3565;53.254;10.352;2023-09-19T04:20:00;6.37;;;2.70;;
7047;SDS011;3565;53.254;10.352;2023-09-19T04:22:32;8.53;;;2.60;;
7047;SDS011;3565;53.254;10.352;2023-09-19T04:25:10;7.10;;;2.50;;
7047;SDS011;3565;53.254;10.352;2023-09-19T04:27:39;4.57;;;2.33;;
7047;SDS011;3565;53.254;10.352;2023-09-19T04:30:09;5.97;;;3.20;;
7047;SDS011;3565;53.254;10.352;2023-09-19T04:32:39;7.13;;;2.80;;
7047;SDS011;3565;53.254;10.352;2023-09-19T04:35:17;6.30;;;2.60;;
7047;SDS011;3565;53.254;10.352;2023-09-19T04:37:46;5.07;;;2.77;;
7047;SDS011;3565;53.254;10.352;2023-09-19T04:40:16;6.47;;;2.60;;
7047;SDS011;3565;53.254;10.352;2023-09-19T04:42:45;7.43;;;2.73;;
7047;SDS011;3565;53.254;10.352;2023-09-19T04:45:31;5.30;;;2.30;;
7047;SDS011;3565;53.254;10.352;2023-09-19T04:48:01;8.90;;;3.13;;
7047;SDS011;3565;53.254;10.352;2023-09-19T04:50:39;5.60;;;2.60;;
7047;SDS011;3565;53.254;10.352;2023-09-19T04:55:45;4.43;;;2.80;;
7047;SDS011;3565;53.254;10.352;2023-09-19T04:58:19;10.97;;;2.83;;
7047;SDS011;3565;53.254;10.352;2023-09-19T05:00:48;7.47;;;2.80;;
7047;SDS011;3565;53.254;10.352;2023-09-19T05:05:54;5.73;;;2.37;;
7047;SDS011;3565;53.254;10.352;2023-09-19T05:08:23;6.33;;;2.80;;
7047;SDS011;3565;53.254;10.352;2023-09-19T05:11:02;7.13;;;3.47;;
7047;SDS011;3565;53.254;10.352;2023-09-19T05:16:09;5.07;;;2.70;;
7047;SDS011;3565;53.254;10.352;2023-09-19T05:18:38;4.93;;;3.00;;
7047;SDS011;3565;53.254;10.352;2023-09-19T05:23:44;6.10;;;2.70;;
7047;SDS011;3565;53.254;10.352;2023-09-19T05:26:16;7.20;;;3.00;;
7047;SDS011;3565;53.254;10.352;2023-09-19T05:28:47;9.57;;;2.83;;
7047;SDS011;3565;53.254;10.352;2023-09-19T05:33:53;6.07;;;2.77;;
7047;SDS011;3565;53.254;10.352;2023-09-19T05:36:22;8.80;;;2.80;;
7047;SDS011;3565;53.254;10.352;2023-09-19T05:38:51;4.90;;;2.53;;
7047;SDS011;3565;53.254;10.352;2023-09-19T05:41:20;6.83;;;3.13;;
7047;SDS011;3565;53.254;10.352;2023-09-19T05:43:58;8.07;;;3.07;;
7047;SDS011;3565;53.254;10.352;2023-09-19T05:46:28;6.77;;;2.90;;
7047;SDS011;3565;53.254;10.352;2023-09-19T05:48:57;7.27;;;3.23;;
7047;SDS011;3565;53.254;10.352;2023-09-19T05:51:26;7.30;;;3.13;;
7047;SDS011;3565;53.254;10.352;2023-09-19T05:56:32;6.30;;;3.00;;
7047;SDS011;3565;53.254;10.352;2023-09-19T05:59:02;6.93;;;3.13;;
7047;SDS011;3565;53.254;10.352;2023-09-19T06:01:32;5.70;;;3.40;;
7047;SDS011;3565;53.254;10.352;2023-09-19T06:04:01;7.40;;;3.30;;
7047;SDS011;3565;53.254;10.352;2023-09-19T06:06:32;11.10;;;3.20;;
7047;SDS011;3565;53.254;10.352;2023-09-19T06:09:03;7.43;;;3.23;;
7047;SDS011;3565;53.254;10.352;2023-09-19T06:11:33;10.83;;;3.40;;
7047;SDS011;3565;53.254;10.352;2023-09-19T06:14:02;7.67;;;3.03;;
7047;SDS011;3565;53.254;10.352;2023-09-19T06:16:32;6.47;;;3.30;;
7047;SDS011;3565;53.254;10.352;2023-09-19T06:21:38;7.50;;;3.17;;
7047;SDS011;3565;53.254;10.352;2023-09-19T06:26:44;8.23;;;2.90;;
7047;SDS011;3565;53.254;10.352;2023-09-19T06:31:51;7.23;;;3.00;;
7047;SDS011;3565;53.254;10.352;2023-09-19T06:34:20;8.43;;;3.37;;
7047;SDS011;3565;53.254;10.352;2023-09-19T06:36:49;9.40;;;3.47;;
7047;SDS011;3565;53.254;10.352;2023-09-19T06:41:58;9.30;;;2.93;;
7047;SDS011;3565;53.254;10.352;2023-09-19T06:44:28;8.07;;;3.53;;
7047;SDS011;3565;53.254;10.352;2023-09-19T06:46:58;6.90;;;3.17;;
7047;SDS011;3565;53.254;10.352;2023-09-19T06:49:27;9.47;;;3.50;;
7047;SDS011;3565;53.254;10.352;2023-09-19T06:54:34;7.20;;;3.23;;
7047;SDS011;3565;53.254;10.352;2023-09-19T06:57:04;6.70;;;3.43;;
7047;SDS011;3565;53.254;10.352;2023-09-19T06:59:35;8.63;;;2.90;;
7047;SDS011;3565;53.254;10.352;2023-09-19T07:02:05;10.93;;;3.40;;
7047;SDS011;3565;53.254;10.352;2023-09-19T07:04:43;7.53;;;3.17;;
7047;SDS011;3565;53.254;10.352;2023-09-19T07:07:12;7.10;;;3.20;;
7047;SDS011;3565;53.254;10.352;2023-09-19T07:09:41;8.70;;;3.53;;
7047;SDS011;3565;53.254;10.352;2023-09-19T07:14:47;7.40;;;3.30;;
7047;SDS011;3565;53.254;10.352;2023-09-19T07:17:18;8.93;;;2.97;;
7047;SDS011;3565;53.254;10.352;2023-09-19T07:19:47;7.50;;;3.07;;
7047;SDS011;3565;53.254;10.352;2023-09-19T07:24:55;6.07;;;3.13;;
7047;SDS011;3565;53.254;10.352;2023-09-19T07:27:24;8.80;;;3.83;;
7047;SDS011;3565;53.254;10.352;2023-09-19T07:29:53;10.27;;;3.57;;
7047;SDS011;3565;53.254;10.352;2023-09-19T07:34:59;8.77;;;4.03;;
7047;SDS011;3565;53.254;10.352;2023-09-19T07:37:29;7.33;;;3.10;;
7047;SDS011;3565;53.254;10.352;2023-09-19T07:39:59;8.03;;;3.40;;
7047;SDS011;3565;53.254;10.352;2023-09-19T07:45:10;8.60;;;3.40;;
7047;SDS011;3565;53.254;10.352;2023-09-19T07:47:43;9.93;;;3.60;;
7047;SDS011;3565;53.254;10.352;2023-09-19T07:52:51;8.87;;;3.77;;
7047;SDS011;3565;53.254;10.352;2023-09-19T07:55:22;7.57;;;3.53;;
7047;SDS011;3565;53.254;10.352;2023-09-19T08:00:29;7.83;;;4.73;;
7047;SDS011;3565;53.254;10.352;2023-09-19T08:02:59;9.60;;;3.90;;
7047;SDS011;3565;53.254;10.352;2023-09-19T08:05:29;8.33;;;3.83;;
7047;SDS011;3565;53.254;10.352;2023-09-19T08:07:59;10.93;;;3.80;;
7047;SDS011;3565;53.254;10.352;2023-09-19T08:10:38;11.43;;;3.60;;
7047;SDS011;3565;53.254;10.352;2023-09-19T08:13:08;12.73;;;4.73;;
7047;SDS011;3565;53.254;10.352;2023-09-19T08:15:47;7.27;;;3.03;;
7047;SDS011;3565;53.254;10.352;2023-09-19T08:20:54;8.67;;;3.20;;
7047;SDS011;3565;53.254;10.352;2023-09-19T08:23:25;8.67;;;2.70;;
7047;SDS011;3565;53.254;10.352;2023-09-19T08:25:56;8.10;;;2.80;;
7047;SDS011;3565;53.254;10.352;2023-09-19T08:28:27;7.83;;;2.73;;
7047;SDS011;3565;53.254;10.352;2023-09-19T08:33:34;7.03;;;2.50;;
7047;SDS011;3565;53.254;10.352;2023-09-19T08:36:04;9.53;;;2.63;;
7047;SDS011;3565;53.254;10.352;2023-09-19T08:38:35;11.93;;;3.10;;
7047;SDS011;3565;53.254;10.352;2023-09-19T08:43:42;7.23;;;3.13;;
7047;SDS011;3565;53.254;10.352;2023-09-19T08:46:15;7.13;;;2.40;;
7047;SDS011;3565;53.254;10.352;2023-09-19T08:48:54;8.23;;;2.50;;
7047;SDS011;3565;53.254;10.352;2023-09-19T08:51:30;8.37;;;2.90;;
7047;SDS011;3565;53.254;10.352;2023-09-19T08:56:40;7.47;;;2.60;;
7047;SDS011;3565;53.254;10.352;2023-09-19T09:01:48;8.70;;;2.47;;
7047;SDS011;3565;53.254;10.352;2023-09-19T09:04:19;10.60;;;2.40;;
7047;SDS011;3565;53.254;10.352;2023-09-19T09:06:49;8.40;;;2.70;;
7047;SDS011;3565;53.254;10.352;2023-09-19T09:11:59;8.90;;;2.63;;
7047;SDS011;3565;53.254;10.352;2023-09-19T09:14:29;9.67;;;2.23;;
7047;SDS011;3565;53.254;10.352;2023-09-19T09:17:00;5.37;;;2.23;;
7047;SDS011;3565;53.254;10.352;2023-09-19T09:22:08;7.03;;;2.37;;
7047;SDS011;3565;53.254;10.352;2023-09-19T09:24:50;6.80;;;2.53;;
7047;SDS011;3565;53.254;10.352;2023-09-19T09:27:20;7.10;;;2.47;;
7047;SDS011;3565;53.254;10.352;2023-09-19T09:29:51;6.10;;;2.23;;
7047;SDS011;3565;53.254;10.352;2023-09-19T09:35:00;6.73;;;2.30;;
7047;SDS011;3565;53.254;10.352;2023-09-19T09:37:32;6.97;;;2.50;;
7047;SDS011;3565;53.254;10.352;2023-09-19T09:42:40;6.93;;;2.50;;
7047;SDS011;3565;53.254;10.352;2023-09-19T09:45:18;5.17;;;2.03;;
7047;SDS011;3565;53.254;10.352;2023-09-19T09:50:28;6.50;;;2.40;;
7047;SDS011;3565;53.254;10.352;2023-09-19T09:53:19;6.50;;;2.43;;
7047;SDS011;3565;53.254;10.352;2023-09-19T09:55:57;7.03;;;2.20;;
7047;SDS011;3565;53.254;10.352;2023-09-19T10:01:06;7.00;;;2.40;;
7047;SDS011;3565;53.254;10.352;2023-09-19T10:03:39;7.40;;;1.93;;
7047;SDS011;3565;53.254;10.352;2023-09-19T10:06:10;7.03;;;2.83;;
7047;SDS011;3565;53.254;10.352;2023-09-19T10:08:59;6.40;;;2.03;;
7047;SDS011;3565;53.254;10.352;2023-09-19T10:14:10;5.33;;;2.10;;
7047;SDS011;3565;53.254;10.352;2023-09-19T10:16:41;4.90;;;2.20;;
7047;SDS011;3565;53.254;10.352;2023-09-19T10:19:23;5.60;;;2.27;;
7047;SDS011;3565;53.254;10.352;2023-09-19T10:21:56;4.87;;;2.03;;
7047;SDS011;3565;53.254;10.352;2023-09-19T10:24:26;4.33;;;2.00;;
7047;SDS011;3565;53.254;10.352;2023-09-19T10:27:06;5.77;;;2.23;;
7047;SDS011;3565;53.254;10.352;2023-09-19T10:32:12;5.40;;;1.80;;
7047;SDS011;3565;53.254;10.352;2023-09-19T10:34:46;4.27;;;2.00;;
7047;SDS011;3565;53.254;10.352;2023-09-19T10:37:16;8.77;;;2.10;;
7047;SDS011;3565;53.254;10.352;2023-09-19T10:39:48;6.67;;;2.50;;
7047;SDS011;3565;53.254;10.352;2023-09-19T10:45:09;6.03;;;2.20;;
7047;SDS011;3565;53.254;10.352;2023-09-19T10:47:41;5.40;;;2.03;;
7047;SDS011;3565;53.254;10.352;2023-09-19T10:50:19;6.50;;;2.40;;
7047;SDS011;3565;53.254;10.352;2023-09-19T10:52:48;5.23;;;2.33;;
7047;SDS011;3565;53.254;10.352;2023-09-19T10:57:59;10.23;;;2.30;;
7047;SDS011;3565;53.254;10.352;2023-09-19T11:00:30;4.07;;;1.90;;
7047;SDS011;3565;53.254;10.352;2023-09-19T11:06:04;7.53;;;2.13;;
7047;SDS011;3565;53.254;10.352;2023-09-19T11:08:56;5.40;;;2.30;;
7047;SDS011;3565;53.254;10.352;2023-09-19T11:11:57;6.17;;;1.77;;
7047;SDS011;3565;53.254;10.352;2023-09-19T11:20:21;5.97;;;3.13;;
7047;SDS011;3565;53.254;10.352;2023-09-19T11:25:55;3.23;;;1.90;;
7047;SDS011;3565;53.254;10.352;2023-09-19T11:28:29;4.43;;;2.00;;
7047;SDS011;3565;53.254;10.352;2023-09-19T11:40:39;9.47;;;2.43;;
7047;SDS011;3565;53.254;10.352;2023-09-19T11:43:30;6.27;;;2.43;;
7047;SDS011;3565;53.254;10.352;2023-09-19T11:46:04;5.63;;;2.03;;
7047;SDS011;3565;53.254;10.352;2023-09-19T11:51:24;7.70;;;2.37;;
7047;SDS011;3565;53.254;10.352;2023-09-19T11:53:54;6.50;;;2.13;;
7047;SDS011;3565;53.254;10.352;2023-09-19T11:59:02;7.07;;;2.27;;
7047;SDS011;3565;53.254;10.352;2023-09-19T12:01:32;4.20;;;2.00;;
7047;SDS011;3565;53.254;10.352;2023-09-19T12:04:01;5.53;;;2.30;;
7047;SDS011;3565;53.254;10.352;2023-09-19T12:06:32;8.50;;;2.40;;
7047;SDS011;3565;53.254;10.352;2023-09-19T12:09:12;5.97;;;2.10;;
7047;SDS011;3565;53.254;10.352;2023-09-19T12:11:43;6.60;;;2.37;;
7047;SDS011;3565;53.254;10.352;2023-09-19T12:16:51;7.43;;;2.50;;
7047;SDS011;3565;53.254;10.352;2023-09-19T12:19:22;4.80;;;2.50;;
7047;SDS011;3565;53.254;10.352;2023-09-19T12:21:55;6.03;;;2.73;;
7047;SDS011;3565;53.254;10.352;2023-09-19T12:24:26;4.53;;;2.00;;
7047;SDS011;3565;53.254;10.352;2023-09-19T12:29:43;6.83;;;2.50;;
7047;SDS011;3565;53.254;10.352;2023-09-19T12:32:12;7.17;;;3.10;;
7047;SDS011;3565;53.254;10.352;2023-09-19T12:37:32;7.10;;;2.50;;
7047;SDS011;3565;53.254;10.352;2023-09-19T12:40:06;7.60;;;2.83;;
7047;SDS011;3565;53.254;10.352;2023-09-19T12:42:44;5.63;;;2.43;;
7047;SDS011;3565;53.254;10.352;2023-09-19T12:45:23;7.37;;;2.40;;
7047;SDS011;3565;53.254;10.352;2023-09-19T12:51:01;5.90;;;2.50;;
7047;SDS011;3565;53.254;10.352;2023-09-19T12:53:32;6.30;;;2.50;;
7047;SDS011;3565;53.254;10.352;2023-09-19T12:56:04;8.17;;;2.77;;
7047;SDS011;3565;53.254;10.352;2023-09-19T13:01:14;4.87;;;2.33;;
7047;SDS011;3565;53.254;10.352;2023-09-19T13:06:35;6.83;;;2.50;;
7047;SDS011;3565;53.254;10.352;2023-09-19T13:09:09;6.60;;;2.33;;
7047;SDS011;3565;53.254;10.352;2023-09-19T13:11:41;6.70;;;2.90;;
7047;SDS011;3565;53.254;10.352;2023-09-19T13:14:16;5.53;;;2.50;;
7047;SDS011;3565;53.254;10.352;2023-09-19T13:16:59;8.77;;;2.70;;
7047;SDS011;3565;53.254;10.352;2023-09-19T13:19:37;9.83;;;2.93;;
7047;SDS011;3565;53.254;10.352;2023-09-19T13:22:38;9.83;;;2.87;;
7047;SDS011;3565;53.254;10.352;2023-09-19T13:27:48;7.03;;;2.50;;
7047;SDS011;3565;53.254;10.352;2023-09-19T13:30:18;5.20;;;2.50;;
7047;SDS011;3565;53.254;10.352;2023-09-19T13:32:52;5.03;;;2.30;;
7047;SDS011;3565;53.254;10.352;2023-09-19T13:35:35;7.00;;;2.90;;
7047;SDS011;3565;53.254;10.352;2023-09-19T13:38:07;6.90;;;2.50;;
7047;SDS011;3565;53.254;10.352;2023-09-19T13:40:38;5.80;;;2.50;;
7047;SDS011;3565;53.254;10.352;2023-09-19T13:45:45;6.37;;;2.90;;
7047;SDS011;3565;53.254;10.352;2023-09-19T13:48:14;7.53;;;2.77;;
7047;SDS011;3565;53.254;10.352;2023-09-19T13:50:53;4.00;;;2.30;;
7047;SDS011;3565;53.254;10.352;2023-09-19T13:56:00;7.97;;;2.90;;
7047;SDS011;3565;53.254;10.352;2023-09-19T13:58:29;6.33;;;2.73;;
7047;SDS011;3565;53.254;10.352;2023-09-19T14:00:59;6.43;;;2.97;;
7047;SDS011;3565;53.254;10.352;2023-09-19T14:03:29;7.43;;;2.70;;
7047;SDS011;3565;53.254;10.352;2023-09-19T14:06:07;4.60;;;2.53;;
7047;SDS011;3565;53.254;10.352;2023-09-19T14:08:38;7.33;;;2.60;;
7047;SDS011;3565;53.254;10.352;2023-09-19T14:11:07;7.53;;;3.53;;
7047;SDS011;3565;53.254;10.352;2023-09-19T14:13:36;7.53;;;2.83;;
7047;SDS011;3565;53.254;10.352;2023-09-19T14:18:45;8.17;;;3.20;;
7047;SDS011;3565;53.254;10.352;2023-09-19T14:21:14;4.67;;;2.80;;
7047;SDS011;3565;53.254;10.352;2023-09-19T14:26:21;8.80;;;3.23;;
7047;SDS011;3565;53.254;10.352;2023-09-19T14:28:50;5.50;;;2.80;;
7047;SDS011;3565;53.254;10.352;2023-09-19T14:31:20;6.67;;;3.13;;
7047;SDS011;3565;53.254;10.352;2023-09-19T14:36:30;5.30;;;3.00;;
7047;SDS011;3565;53.254;10.352;2023-09-19T14:39:00;6.93;;;3.00;;
7047;SDS011;3565;53.254;10.352;2023-09-19T14:41:30;5.90;;;2.97;;
7047;SDS011;3565;53.254;10.352;2023-09-19T14:43:59;7.03;;;3.10;;
7047;SDS011;3565;53.254;10.352;2023-09-19T14:46:29;8.03;;;3.40;;
7047;SDS011;3565;53.254;10.352;2023-09-19T14:48:58;6.27;;;3.30;;
7047;SDS011;3565;53.254;10.352;2023-09-19T14:51:38;6.87;;;2.90;;
7047;SDS011;3565;53.254;10.352;2023-09-19T14:54:09;6.77;;;3.00;;
7047;SDS011;3565;53.254;10.352;2023-09-19T14:56:49;7.43;;;3.57;;
7047;SDS011;3565;53.254;10.352;2023-09-19T14:59:20;6.80;;;3.10;;
7047;SDS011;3565;53.254;10.352;2023-09-19T15:01:49;6.70;;;2.83;;
7047;SDS011;3565;53.254;10.352;2023-09-19T15:04:18;8.70;;;2.73;;
7047;SDS011;3565;53.254;10.352;2023-09-19T15:09:25;7.57;;;2.97;;
7047;SDS011;3565;53.254;10.352;2023-09-19T15:11:55;7.30;;;3.23;;
7047;SDS011;3565;53.254;10.352;2023-09-19T15:17:01;6.13;;;3.30;;
7047;SDS011;3565;53.254;10.352;2023-09-19T15:19:32;6.17;;;3.00;;
7047;SDS011;3565;53.254;10.352;2023-09-19T15:22:04;6.97;;;3.50;;
7047;SDS011;3565;53.254;10.352;2023-09-19T15:24:36;8.60;;;3.40;;
7047;SDS011;3565;53.254;10.352;2023-09-19T15:29:42;6.43;;;3.50;;
7047;SDS011;3565;53.254;10.352;2023-09-19T15:32:11;7.67;;;2.73;;
7047;SDS011;3565;53.254;10.352;2023-09-19T15:37:20;8.40;;;2.90;;
7047;SDS011;3565;53.254;10.352;2023-09-19T15:39:50;7.37;;;3.57;;
7047;SDS011;3565;53.254;10.352;2023-09-19T15:44:59;5.87;;;2.80;;
7047;SDS011;3565;53.254;10.352;2023-09-19T15:47:28;6.87;;;2.47;;
7047;SDS011;3565;53.254;10.352;2023-09-19T15:49:57;7.03;;;2.50;;
7047;SDS011;3565;53.254;10.352;2023-09-19T15:55:04;5.70;;;2.60;;
7047;SDS011;3565;53.254;10.352;2023-09-19T15:57:37;5.93;;;2.77;;
7047;SDS011;3565;53.254;10.352;2023-09-19T16:00:08;7.33;;;2.80;;
7047;SDS011;3565;53.254;10.352;2023-09-19T16:02:42;8.33;;;3.40;;
7047;SDS011;3565;53.254;10.352;2023-09-19T16:07:50;6.43;;;2.53;;
7047;SDS011;3565;53.254;10.352;2023-09-19T16:12:57;5.63;;;2.50;;
7047;SDS011;3565;53.254;10.352;2023-09-19T16:18:06;4.70;;;2.57;;
7047;SDS011;3565;53.254;10.352;2023-09-19T16:20:35;5.60;;;2.40;;
7047;SDS011;3565;53.254;10.352;2023-09-19T16:23:05;6.43;;;2.93;;
7047;SDS011;3565;53.254;10.352;2023-09-19T16:28:12;6.27;;;2.60;;
7047;SDS011;3565;53.254;10.352;2023-09-19T16:30:41;5.60;;;2.63;;
7047;SDS011;3565;53.254;10.352;2023-09-19T16:33:10;7.70;;;2.60;;
7047;SDS011;3565;53.254;10.352;2023-09-19T16:35:39;10.03;;;2.97;;
7047;SDS011;3565;53.254;10.352;2023-09-19T16:40:51;5.53;;;2.33;;
7047;SDS011;3565;53.254;10.352;2023-09-19T16:45:59;6.90;;;2.50;;
7047;SDS011;3565;53.254;10.352;2023-09-19T16:48:30;7.87;;;2.40;;
7047;SDS011;3565;53.254;10.352;2023-09-19T16:51:00;7.60;;;2.30;;
7047;SDS011;3565;53.254;10.352;2023-09-19T16:53:31;9.47;;;2.50;;
7047;SDS011;3565;53.254;10.352;2023-09-19T16:56:01;6.03;;;2.57;;
7047;SDS011;3565;53.254;10.352;2023-09-19T16:58:41;5.80;;;2.43;;
7047;SDS011;3565;53.254;10.352;2023-09-19T17:01:12;7.80;;;2.50;;
7047;SDS011;3565;53.254;10.352;2023-09-19T17:06:21;6.23;;;2.37;;
7047;SDS011;3565;53.254;10.352;2023-09-19T17:11:28;6.40;;;2.80;;
7047;SDS011;3565;53.254;10.352;2023-09-19T17:13:59;8.07;;;2.87;;
7047;SDS011;3565;53.254;10.352;2023-09-19T17:16:29;10.57;;;2.53;;
7047;SDS011;3565;53.254;10.352;2023-09-19T17:19:00;4.97;;;2.30;;
7047;SDS011;3565;53.254;10.352;2023-09-19T17:21:32;5.87;;;2.33;;
7047;SDS011;3565;53.254;10.352;2023-09-19T17:26:39;4.70;;;2.20;;
7047;SDS011;3565;53.254;10.352;2023-09-19T17:31:47;5.00;;;2.30;;
7047;SDS011;3565;53.254;10.352;2023-09-19T17:36:53;5.37;;;2.13;;
7047;SDS011;3565;53.254;10.352;2023-09-19T17:39:24;6.17;;;2.30;;
7047;SDS011;3565;53.254;10.352;2023-09-19T17:41:54;5.80;;;2.23;;
7047;SDS011;3565;53.254;10.352;2023-09-19T17:44:23;6.13;;;2.53;;
7047;SDS011;3565;53.254;10.352;2023-09-19T17:46:52;5.60;;;2.60;;
7047;SDS011;3565;53.254;10.352;2023-09-19T17:52:01;3.97;;;2.17;;
7047;SDS011;3565;53.254;10.352;2023-09-19T17:54:31;4.30;;;2.10;;
7047;SDS011;3565;53.254;10.352;2023-09-19T17:57:00;4.70;;;2.07;;
7047;SDS011;3565;53.254;10.352;2023-09-19T17:59:30;6.93;;;2.60;;
7047;SDS011;3565;53.254;10.352;2023-09-19T18:02:00;4.33;;;2.30;;
7047;SDS011;3565;53.254;10.352;2023-09-19T18:04:29;5.80;;;2.50;;
7047;SDS011;3565;53.254;10.352;2023-09-19T18:09:36;5.77;;;2.30;;
7047;SDS011;3565;53.254;10.352;2023-09-19T18:12:05;7.67;;;2.57;;
7047;SDS011;3565;53.254;10.352;2023-09-19T18:17:12;6.57;;;2.43;;
7047;SDS011;3565;53.254;10.352;2023-09-19T18:19:41;5.80;;;2.30;;
7047;SDS011;3565;53.254;10.352;2023-09-19T18:22:11;5.40;;;2.27;;
7047;SDS011;3565;53.254;10.352;2023-09-19T18:24:40;3.73;;;2.00;;
7047;SDS011;3565;53.254;10.352;2023-09-19T18:27:18;4.30;;;2.57;;
7047;SDS011;3565;53.254;10.352;2023-09-19T18:29:48;5.33;;;2.47;;
7047;SDS011;3565;53.254;10.352;2023-09-19T18:34:57;6.57;;;2.27;;
7047;SDS011;3565;53.254;10.352;2023-09-19T18:40:04;4.40;;;2.23;;
7047;SDS011;3565;53.254;10.352;2023-09-19T18:42:37;5.97;;;2.70;;
7047;SDS011;3565;53.254;10.352;2023-09-19T18:45:07;3.73;;;2.20;;
7047;SDS011;3565;53.254;10.352;2023-09-19T18:50:18;4.67;;;1.73;;
7047;SDS011;3565;53.254;10.352;2023-09-19T18:55:29;5.63;;;2.27;;
7047;SDS011;3565;53.254;10.352;2023-09-19T18:58:00;3.87;;;2.13;;
7047;SDS011;3565;53.254;10.352;2023-09-19T19:00:29;5.53;;;2.00;;
7047;SDS011;3565;53.254;10.352;2023-09-19T19:05:38;8.83;;;2.37;;
7047;SDS011;3565;53.254;10.352;2023-09-19T19:08:09;4.10;;;2.10;;
7047;SDS011;3565;53.254;10.352;2023-09-19T19:10:39;3.97;;;1.90;;
7047;SDS011;3565;53.254;10.352;2023-09-19T19:15:47;5.23;;;2.30;;
7047;SDS011;3565;53.254;10.352;2023-09-19T19:18:16;5.70;;;1.93;;
7047;SDS011;3565;53.254;10.352;2023-09-19T19:20:45;3.70;;;1.90;;
7047;SDS011;3565;53.254;10.352;2023-09-19T19:23:14;5.83;;;1.83;;
7047;SDS011;3565;53.254;10.352;2023-09-19T19:25:46;6.23;;;2.40;;
7047;SDS011;3565;53.254;10.352;2023-09-19T19:28:16;4.13;;;2.10;;
7047;SDS011;3565;53.254;10.352;2023-09-19T19:33:22;4.27;;;1.90;;
7047;SDS011;3565;53.254;10.352;2023-09-19T19:38:30;2.73;;;1.60;;
7047;SDS011;3565;53.254;10.352;2023-09-19T19:40:59;3.53;;;1.70;;
7047;SDS011;3565;53.254;10.352;2023-09-19T19:43:29;3.27;;;1.90;;
7047;SDS011;3565;53.254;10.352;2023-09-19T19:48:42;3.83;;;1.87;;
7047;SDS011;3565;53.254;10.352;2023-09-19T19:51:17;3.73;;;1.70;;
7047;SDS011;3565;53.254;10.352;2023-09-19T19:53:47;2.60;;;1.53;;
7047;SDS011;3565;53.254;10.352;2023-09-19T19:58:53;5.47;;;2.03;;
7047;SDS011;3565;53.254;10.352;2023-09-19T20:01:22;2.60;;;1.80;;
7047;SDS011;3565;53.254;10.352;2023-09-19T20:06:28;3.50;;;1.70;;
7047;SDS011;3565;53.254;10.352;2023-09-19T20:08:57;5.40;;;2.00;;
7047;SDS011;3565;53.254;10.352;2023-09-19T20:11:42;4.30;;;1.70;;
7047;SDS011;3565;53.254;10.352;2023-09-19T20:14:10;2.53;;;1.70;;
7047;SDS011;3565;53.254;10.352;2023-09-19T20:19:20;3.53;;;2.07;;
7047;SDS011;3565;53.254;10.352;2023-09-19T20:21:50;3.40;;;1.60;;
7047;SDS011;3565;53.254;10.352;2023-09-19T20:24:21;6.47;;;1.70;;
7047;SDS011;3565;53.254;10.352;2023-09-19T20:26:59;3.97;;;2.00;;
7047;SDS011;3565;53.254;10.352;2023-09-19T20:29:33;6.47;;;2.00;;
7047;SDS011;3565;53.254;10.352;2023-09-19T20:32:04;3.93;;;1.83;;
7047;SDS011;3565;53.254;10.352;2023-09-19T20:34:35;4.07;;;1.70;;